createdAt,value
2022-10-18T00:01:32.269Z,0.60
2022-10-18T00:04:02.448Z,0.88
2022-10-18T00:06:32.581Z,0.80
2022-10-18T00:09:02.705Z,1.00
2022-10-18T00:11:33.383Z,0.85
2022-10-18T00:14:03.583Z,0.98
2022-10-18T00:16:33.778Z,0.80
2022-10-18T00:19:04.245Z,0.80
2022-10-18T00:21:34.627Z,0.80
2022-10-18T00:24:04.998Z,0.70
2022-10-18T00:26:35.319Z,0.70
2022-10-18T00:29:08.626Z,0.90
2022-10-18T00:31:40.315Z,0.93
2022-10-18T00:34:18.461Z,0.90
2022-10-18T00:36:48.713Z,1.00
2022-10-18T00:39:21.750Z,0.95
2022-10-18T00:41:52.789Z,0.90
2022-10-18T00:44:29.159Z,0.90
2022-10-18T00:47:05.339Z,0.77
2022-10-18T00:49:51.018Z,0.80
2022-10-18T00:52:34.124Z,0.70
2022-10-18T00:55:05.740Z,0.75
2022-10-18T00:57:36.742Z,1.00
2022-10-18T01:00:11.738Z,0.73
2022-10-18T01:02:44.070Z,0.70
2022-10-18T01:05:20.102Z,0.75
2022-10-18T01:08:05.057Z,1.10
2022-10-18T01:11:08.319Z,0.70
2022-10-18T01:13:46.300Z,0.70
2022-10-18T01:17:00.990Z,0.70
2022-10-18T01:19:33.868Z,0.85
2022-10-18T01:22:33.106Z,1.05
2022-10-18T01:25:20.348Z,0.98
2022-10-18T01:28:03.493Z,1.00
2022-10-18T01:30:45.315Z,1.00
2022-10-18T01:33:23.094Z,0.90
2022-10-18T01:36:22.608Z,1.00
2022-10-18T01:38:56.744Z,0.95
2022-10-18T01:41:29.155Z,1.00
2022-10-18T01:44:03.168Z,0.90
2022-10-18T01:46:33.518Z,1.13
2022-10-18T01:49:03.743Z,1.25
2022-10-18T01:51:35.529Z,1.05
2022-10-18T01:54:06.102Z,1.13
2022-10-18T01:57:16.997Z,1.00
2022-10-18T01:59:58.245Z,1.17
2022-10-18T02:02:34.552Z,1.27
2022-10-18T02:05:10.954Z,1.33
2022-10-18T02:07:55.468Z,1.20
2022-10-18T02:10:50.911Z,1.15
2022-10-18T02:13:24.179Z,1.10
2022-10-18T02:16:00.354Z,0.95
2022-10-18T02:18:39.715Z,1.10
2022-10-18T02:21:13.203Z,1.30
2022-10-18T02:23:44.682Z,1.38
2022-10-18T02:26:16.751Z,1.20
2022-10-18T02:28:48.058Z,0.93
2022-10-18T02:31:39.226Z,1.35
2022-10-18T02:34:26.239Z,1.17
2022-10-18T02:37:01.572Z,1.63
2022-10-18T02:40:00.768Z,1.50
2022-10-18T02:42:40.120Z,1.15
2022-10-18T02:45:10.723Z,1.25
2022-10-18T02:47:41.272Z,1.25
2022-10-18T02:50:11.820Z,1.15
2022-10-18T02:52:42.061Z,1.30
2022-10-18T02:55:13.552Z,1.20
2022-10-18T02:57:43.816Z,1.40
2022-10-18T03:00:14.541Z,1.20
2022-10-18T03:02:45.060Z,1.50
2022-10-18T03:05:15.227Z,1.08
2022-10-18T03:07:45.416Z,1.40
2022-10-18T03:10:15.602Z,1.27
2022-10-18T03:12:45.800Z,1.38
2022-10-18T03:15:15.970Z,1.08
2022-10-18T03:17:46.146Z,1.27
2022-10-18T03:20:16.476Z,1.30
2022-10-18T03:22:46.594Z,1.00
2022-10-18T03:25:16.794Z,0.90
2022-10-18T03:27:47.018Z,1.17
2022-10-18T03:30:17.255Z,1.10
2022-10-18T03:32:47.446Z,1.08
2022-10-18T03:35:17.679Z,1.05
2022-10-18T03:37:47.861Z,1.45
2022-10-18T03:40:18.492Z,1.33
2022-10-18T03:42:48.697Z,1.30
2022-10-18T03:45:18.941Z,1.30
2022-10-18T03:47:49.167Z,1.15
2022-10-18T03:50:19.466Z,1.20
2022-10-18T03:52:49.566Z,1.00
2022-10-18T03:55:19.846Z,1.05
2022-10-18T03:57:50.179Z,1.00
2022-10-18T04:00:20.657Z,1.08
2022-10-18T04:02:53.443Z,1.27
2022-10-18T04:05:28.509Z,1.20
2022-10-18T04:07:59.247Z,1.27
2022-10-18T04:10:29.697Z,1.08
2022-10-18T04:12:59.864Z,1.52
2022-10-18T04:15:30.361Z,1.50
2022-10-18T04:18:00.761Z,1.13
2022-10-18T04:20:31.769Z,1.00
2022-10-18T04:23:01.917Z,1.10
2022-10-18T04:25:32.486Z,1.02
2022-10-18T04:28:02.649Z,1.30
2022-10-18T04:30:33.034Z,0.98
2022-10-18T04:33:03.160Z,1.30
2022-10-18T04:35:33.376Z,1.40
2022-10-18T04:38:04.178Z,1.02
2022-10-18T04:40:34.316Z,1.10
2022-10-18T04:43:04.515Z,1.60
2022-10-18T04:45:34.663Z,1.40
2022-10-18T04:48:05.272Z,1.10
2022-10-18T04:50:35.480Z,1.20
2022-10-18T04:53:06.031Z,1.15
2022-10-18T04:55:36.147Z,1.10
2022-10-18T04:58:06.267Z,1.17
2022-10-18T05:00:39.864Z,1.10
2022-10-18T05:03:10.993Z,1.50
2022-10-18T05:05:57.156Z,1.35
2022-10-18T05:08:31.897Z,1.10
2022-10-18T05:11:02.930Z,0.98
2022-10-18T05:13:33.508Z,1.20
2022-10-18T05:16:04.227Z,1.15
2022-10-18T05:18:34.525Z,1.30
2022-10-18T05:21:05.069Z,1.50
2022-10-18T05:23:35.196Z,1.10
2022-10-18T05:26:07.262Z,1.08
2022-10-18T05:28:40.483Z,1.42
2022-10-18T05:31:13.522Z,1.20
2022-10-18T05:33:43.802Z,1.15
2022-10-18T05:36:13.972Z,1.33
2022-10-18T05:38:44.902Z,1.20
2022-10-18T05:41:15.665Z,1.20
2022-10-18T05:43:45.861Z,1.33
2022-10-18T05:46:16.066Z,1.13
2022-10-18T05:48:51.303Z,1.27
2022-10-18T05:51:21.772Z,1.05
2022-10-18T05:53:51.958Z,1.00
2022-10-18T05:56:22.102Z,1.30
2022-10-18T05:58:55.564Z,1.17
2022-10-18T06:01:25.959Z,1.40
2022-10-18T06:03:56.493Z,1.20
2022-10-18T06:06:27.495Z,1.10
2022-10-18T06:08:57.959Z,0.95
2022-10-18T06:11:28.662Z,1.05
2022-10-18T06:14:03.491Z,1.35
2022-10-18T06:16:34.380Z,1.15
2022-10-18T06:19:04.654Z,1.00
2022-10-18T06:21:35.021Z,0.95
2022-10-18T06:24:05.148Z,1.13
2022-10-18T06:26:35.351Z,1.15
2022-10-18T06:29:05.585Z,1.10
2022-10-18T06:31:35.732Z,1.10
2022-10-18T06:34:06.560Z,1.38
2022-10-18T06:36:36.775Z,1.08
2022-10-18T06:39:07.075Z,1.10
2022-10-18T06:41:37.258Z,1.20
2022-10-18T06:44:15.323Z,1.13
2022-10-18T06:46:46.320Z,1.00
2022-10-18T06:49:19.169Z,1.00
2022-10-18T06:51:49.659Z,1.40
2022-10-18T06:54:19.946Z,1.20
2022-10-18T06:56:50.064Z,1.13
2022-10-18T06:59:20.380Z,1.13
2022-10-18T07:01:50.626Z,1.17
2022-10-18T07:04:20.903Z,1.10
2022-10-18T07:06:51.060Z,1.27
2022-10-18T07:09:21.186Z,1.25
2022-10-18T07:11:54.448Z,1.30
2022-10-18T07:14:28.798Z,1.20
2022-10-18T07:17:02.094Z,1.20
2022-10-18T07:19:32.419Z,0.95
2022-10-18T07:22:02.548Z,1.60
2022-10-18T07:27:03.633Z,1.25
2022-10-18T07:29:33.991Z,0.98
2022-10-18T07:32:04.100Z,1.30
2022-10-18T07:34:34.344Z,1.02
2022-10-18T07:37:05.265Z,1.10
2022-10-18T07:39:35.445Z,1.00
2022-10-18T07:42:05.569Z,1.08
2022-10-18T07:44:35.757Z,1.33
2022-10-18T07:47:05.922Z,1.20
2022-10-18T07:49:36.017Z,1.10
2022-10-18T07:52:06.589Z,1.88
2022-10-18T07:54:36.779Z,1.42
2022-10-18T07:57:07.701Z,1.55
2022-10-18T07:59:38.427Z,1.30
2022-10-18T08:02:08.647Z,0.90
2022-10-18T08:04:38.800Z,1.10
2022-10-18T08:07:08.945Z,0.90
2022-10-18T08:09:39.046Z,1.40
2022-10-18T08:12:09.171Z,1.10
2022-10-18T08:14:39.323Z,1.10
2022-10-18T08:17:09.555Z,1.05
2022-10-18T08:19:48.150Z,0.75
2022-10-18T08:22:28.592Z,1.10
2022-10-18T08:24:58.703Z,1.27
2022-10-18T08:27:28.993Z,0.90
2022-10-18T08:30:01.427Z,1.13
2022-10-18T08:32:32.747Z,1.10
2022-10-18T08:35:04.505Z,1.30
2022-10-18T08:37:37.467Z,1.10
2022-10-18T08:40:08.377Z,1.10
2022-10-18T08:43:02.980Z,1.13
2022-10-18T08:45:42.234Z,1.30
2022-10-18T08:48:36.127Z,0.90
2022-10-18T08:51:13.352Z,1.20
2022-10-18T08:54:03.511Z,1.00
2022-10-18T08:56:34.755Z,1.17
2022-10-18T08:59:06.276Z,1.05
2022-10-18T09:02:17.866Z,0.95
2022-10-18T09:05:04.800Z,1.13
2022-10-18T09:07:53.113Z,1.20
2022-10-18T09:10:35.202Z,1.13
2022-10-18T09:13:11.226Z,0.95
2022-10-18T09:16:06.636Z,1.05
2022-10-18T09:18:51.754Z,1.20
2022-10-18T09:21:49.746Z,1.17
2022-10-18T09:24:39.564Z,1.13
2022-10-18T09:27:21.851Z,1.35
2022-10-18T09:30:05.698Z,0.93
2022-10-18T09:32:57.271Z,1.10
2022-10-18T09:35:48.531Z,1.13
2022-10-18T09:38:23.406Z,1.30
2022-10-18T09:40:59.088Z,1.20
2022-10-18T09:43:41.562Z,1.08
2022-10-18T09:46:12.325Z,1.00
2022-10-18T09:49:09.914Z,0.90
2022-10-18T09:51:44.957Z,1.38
2022-10-18T09:54:30.172Z,1.17
2022-10-18T09:57:08.685Z,0.98
2022-10-18T09:59:44.986Z,1.25
2022-10-18T10:02:33.169Z,1.00
2022-10-18T10:05:03.404Z,1.17
2022-10-18T10:07:43.213Z,1.20
2022-10-18T10:10:30.238Z,1.00
2022-10-18T10:13:06.638Z,0.98
2022-10-18T10:15:39.377Z,1.42
2022-10-18T10:18:27.519Z,1.15
2022-10-18T10:21:04.028Z,1.30
2022-10-18T10:23:53.449Z,1.05
2022-10-18T10:26:35.322Z,1.50
2022-10-18T10:29:09.872Z,1.08
2022-10-18T10:31:47.503Z,1.23
2022-10-18T10:34:17.556Z,1.25
2022-10-18T10:36:52.706Z,1.40
2022-10-18T10:39:25.841Z,1.15
2022-10-18T10:42:00.931Z,1.20
2022-10-18T10:44:34.987Z,1.35
2022-10-18T10:47:06.204Z,1.20
2022-10-18T10:49:51.012Z,1.38
2022-10-18T10:52:36.589Z,1.40
2022-10-18T10:55:30.882Z,1.20
2022-10-18T10:57:59.113Z,1.35
2022-10-18T11:00:46.714Z,1.33
2022-10-18T11:03:30.193Z,1.20
2022-10-18T11:06:02.462Z,1.35
2022-10-18T11:11:51.026Z,1.30
2022-10-18T11:14:39.165Z,1.30
2022-10-18T11:17:38.021Z,1.15
2022-10-18T11:20:24.533Z,1.50
2022-10-18T11:23:04.062Z,1.52
2022-10-18T11:25:46.408Z,1.27
2022-10-18T11:28:41.249Z,1.13
2022-10-18T11:31:53.664Z,1.30
2022-10-18T11:34:48.005Z,1.48
2022-10-18T11:37:29.153Z,1.50
2022-10-18T11:40:06.175Z,1.17
2022-10-18T11:42:39.779Z,1.20
2022-10-18T11:45:26.523Z,1.30
2022-10-18T11:48:02.508Z,1.65
2022-10-18T11:50:56.618Z,1.60
2022-10-18T11:53:52.110Z,1.40
2022-10-18T11:56:37.914Z,1.40
2022-10-18T11:59:43.479Z,1.50
2022-10-18T12:02:24.230Z,1.73
2022-10-18T12:08:08.444Z,1.27
2022-10-18T12:10:53.118Z,1.40
2022-10-18T12:13:39.291Z,1.65
2022-10-18T12:16:12.619Z,1.42
2022-10-18T12:19:03.326Z,1.67
2022-10-18T12:21:35.926Z,1.40
2022-10-18T12:24:20.809Z,1.60
2022-10-18T12:26:56.082Z,1.38
2022-10-18T12:29:50.241Z,1.50
2022-10-18T12:32:31.980Z,1.88
2022-10-18T12:35:18.072Z,1.60
2022-10-18T12:37:51.032Z,1.70
2022-10-18T12:40:32.717Z,1.50
2022-10-18T12:43:09.917Z,1.50
2022-10-18T12:45:56.486Z,1.63
2022-10-18T12:48:30.841Z,1.67
2022-10-18T12:51:18.239Z,1.75
2022-10-18T12:53:59.124Z,1.60
2022-10-18T12:56:35.783Z,2.03
2022-10-18T12:59:18.154Z,1.67
2022-10-18T13:01:57.013Z,1.63
2022-10-18T13:04:34.163Z,1.88
2022-10-18T13:07:07.280Z,1.70
2022-10-18T13:09:48.144Z,1.58
2022-10-18T13:12:18.307Z,1.42
2022-10-18T13:15:24.260Z,1.55
2022-10-18T13:18:04.840Z,1.58
2022-10-18T13:20:45.376Z,1.73
2022-10-18T13:23:48.431Z,1.73
2022-10-18T13:26:26.807Z,1.85
2022-10-18T13:29:20.910Z,1.40
2022-10-18T13:31:54.508Z,1.40
2022-10-18T13:34:24.772Z,1.90
2022-10-18T13:37:20.619Z,1.63
2022-10-18T13:39:51.111Z,1.83
2022-10-18T13:42:33.971Z,2.28
2022-10-18T13:45:33.443Z,1.85
2022-10-18T13:48:34.367Z,1.75
2022-10-18T13:51:33.380Z,1.80
2022-10-18T13:54:13.420Z,1.55
2022-10-18T13:57:11.389Z,1.90
2022-10-18T13:59:52.650Z,1.52
2022-10-18T14:02:51.558Z,1.88
2022-10-18T14:05:55.310Z,1.70
2022-10-18T14:09:06.182Z,2.05
2022-10-18T14:11:55.903Z,1.90
2022-10-18T14:14:39.945Z,1.58
2022-10-18T14:17:51.214Z,1.80
2022-10-18T14:20:49.559Z,1.70
2022-10-18T14:23:36.859Z,1.73
2022-10-18T14:26:15.326Z,1.70
2022-10-18T14:28:59.523Z,1.92
2022-10-18T14:31:30.716Z,1.65
2022-10-18T14:34:02.133Z,1.88
2022-10-18T14:36:48.343Z,1.67
2022-10-18T14:39:30.875Z,1.58
2022-10-18T14:42:01.140Z,1.92
2022-10-18T14:44:33.774Z,1.60
2022-10-18T14:47:22.472Z,1.80
2022-10-18T14:49:56.005Z,1.73
2022-10-18T14:52:36.489Z,1.70
2022-10-18T14:55:06.967Z,1.45
2022-10-18T14:57:39.775Z,1.98
2022-10-18T15:00:31.265Z,1.92
2022-10-18T15:03:02.717Z,1.60
2022-10-18T15:05:32.904Z,2.03
2022-10-18T15:08:03.770Z,1.70
2022-10-18T15:10:36.769Z,1.77
2022-10-18T15:13:10.265Z,1.95
2022-10-18T15:15:43.035Z,1.58
2022-10-18T15:21:25.642Z,1.80
2022-10-18T15:23:59.012Z,1.70
2022-10-18T15:26:32.331Z,1.85
2022-10-18T15:29:06.037Z,1.90
2022-10-18T15:31:44.631Z,1.80
2022-10-18T15:34:25.325Z,1.75
2022-10-18T15:36:58.184Z,1.77
2022-10-18T15:39:32.913Z,1.70
2022-10-18T15:42:04.751Z,1.55
2022-10-18T15:44:53.108Z,1.55
2022-10-18T15:47:26.065Z,1.70
2022-10-18T15:50:00.050Z,1.92
2022-10-18T15:52:39.213Z,1.75
2022-10-18T15:55:35.368Z,1.60
2022-10-18T15:58:23.670Z,1.70
2022-10-18T16:00:56.964Z,1.95
2022-10-18T16:03:27.640Z,1.70
2022-10-18T16:06:05.650Z,1.65
2022-10-18T16:08:44.057Z,1.95
2022-10-18T16:11:18.388Z,1.80
2022-10-18T16:13:48.984Z,1.90
2022-10-18T16:16:25.120Z,1.40
2022-10-18T16:18:56.044Z,1.67
2022-10-18T16:21:29.817Z,1.50
2022-10-18T16:24:00.795Z,1.80
2022-10-18T16:26:31.310Z,1.60
2022-10-18T16:29:02.934Z,1.45
2022-10-18T16:31:35.524Z,1.52
2022-10-18T16:34:06.040Z,1.90
2022-10-18T16:36:36.634Z,1.75
2022-10-18T16:39:12.477Z,1.58
2022-10-18T16:41:42.614Z,1.73
2022-10-18T16:44:12.937Z,1.63
2022-10-18T16:46:43.626Z,1.60
2022-10-18T16:49:25.113Z,1.60
2022-10-18T16:51:56.263Z,1.75
2022-10-18T16:54:27.222Z,1.80
2022-10-18T16:56:58.664Z,1.50
2022-10-18T16:59:33.527Z,1.73
2022-10-18T17:02:07.306Z,1.50
2022-10-18T17:04:37.517Z,1.70
2022-10-18T17:07:07.675Z,1.50
2022-10-18T17:09:38.696Z,1.73
2022-10-18T17:12:08.965Z,1.85
2022-10-18T17:14:39.411Z,1.60
2022-10-18T17:17:13.505Z,1.83
2022-10-18T17:19:43.824Z,1.70
2022-10-18T17:22:13.930Z,1.58
2022-10-18T17:24:44.089Z,1.70
2022-10-18T17:27:14.446Z,1.70
2022-10-18T17:29:44.732Z,1.60
2022-10-18T17:32:14.921Z,2.00
2022-10-18T17:34:45.164Z,2.00
2022-10-18T17:37:16.196Z,1.70
2022-10-18T17:39:46.322Z,1.70
2022-10-18T17:42:16.468Z,1.50
2022-10-18T17:44:47.878Z,1.50
2022-10-18T17:47:18.020Z,1.90
2022-10-18T17:49:48.497Z,1.45
2022-10-18T17:52:18.886Z,1.73
2022-10-18T17:54:49.035Z,2.10
2022-10-18T17:57:19.232Z,1.40
2022-10-18T17:59:50.657Z,1.50
2022-10-18T18:02:20.762Z,1.50
2022-10-18T18:04:50.925Z,1.50
2022-10-18T18:07:21.057Z,1.70
2022-10-18T18:09:51.261Z,1.60
2022-10-18T18:12:21.530Z,1.48
2022-10-18T18:14:51.785Z,1.70
2022-10-18T18:17:28.799Z,1.60
2022-10-18T18:20:04.615Z,1.60
2022-10-18T18:22:37.895Z,1.50
2022-10-18T18:25:11.320Z,1.60
2022-10-18T18:27:41.601Z,1.20
2022-10-18T18:30:12.136Z,1.63
2022-10-18T18:32:42.318Z,1.90
2022-10-18T18:35:12.504Z,1.60
2022-10-18T18:37:42.663Z,1.42
2022-10-18T18:40:13.076Z,1.40
2022-10-18T18:42:43.159Z,1.42
2022-10-18T18:45:13.324Z,1.40
2022-10-18T18:47:43.396Z,1.52
2022-10-18T18:50:13.677Z,1.50
2022-10-18T18:52:43.841Z,1.50
2022-10-18T18:55:13.985Z,1.35
2022-10-18T18:57:44.132Z,1.55
2022-10-18T19:00:15.176Z,1.83
2022-10-18T19:02:45.309Z,1.63
2022-10-18T19:05:15.489Z,1.70
2022-10-18T19:07:45.661Z,1.60
2022-10-18T19:10:15.791Z,1.60
2022-10-18T19:12:45.910Z,1.58
2022-10-18T19:15:16.057Z,1.45
2022-10-18T19:17:46.364Z,1.52
2022-10-18T19:20:19.286Z,1.20
2022-10-18T19:22:49.514Z,1.60
2022-10-18T19:25:21.208Z,1.50
2022-10-18T19:27:53.610Z,1.73
2022-10-18T19:30:23.873Z,1.27
2022-10-18T19:33:01.244Z,1.42
2022-10-18T19:35:33.675Z,1.25
2022-10-18T19:38:03.832Z,1.40
2022-10-18T19:40:33.922Z,1.38
2022-10-18T19:43:04.061Z,1.70
2022-10-18T19:45:34.774Z,1.60
2022-10-18T19:48:04.890Z,1.30
2022-10-18T19:50:36.849Z,1.63
2022-10-18T19:53:06.949Z,1.42
2022-10-18T19:55:37.447Z,1.55
2022-10-18T19:58:07.629Z,1.55
2022-10-18T20:00:37.787Z,1.60
2022-10-18T20:03:07.911Z,1.70
2022-10-18T20:05:38.085Z,1.40
2022-10-18T20:08:08.569Z,1.63
2022-10-18T20:10:38.706Z,1.58
2022-10-18T20:13:08.884Z,1.55
2022-10-18T20:15:39.017Z,1.80
2022-10-18T20:18:09.130Z,1.70
2022-10-18T20:20:39.306Z,1.42
2022-10-18T20:23:09.498Z,1.30
2022-10-18T20:25:39.716Z,1.38
2022-10-18T20:28:10.115Z,1.58
2022-10-18T20:30:40.712Z,1.75
2022-10-18T20:33:10.912Z,1.80
2022-10-18T20:35:41.373Z,1.67
2022-10-18T20:38:11.887Z,1.70
2022-10-18T20:40:42.747Z,1.92
2022-10-18T20:43:13.316Z,1.55
2022-10-18T20:45:43.514Z,2.28
2022-10-18T20:48:13.857Z,2.10
2022-10-18T20:50:44.389Z,1.60
2022-10-18T20:53:15.579Z,1.65
2022-10-18T20:55:45.798Z,2.20
2022-10-18T20:58:16.205Z,1.70
2022-10-18T21:00:46.626Z,1.70
2022-10-18T21:03:17.302Z,1.85
2022-10-18T21:05:47.560Z,1.80
2022-10-18T21:08:18.292Z,2.08
2022-10-18T21:10:48.395Z,1.58
2022-10-18T21:13:18.545Z,1.88
2022-10-18T21:15:57.066Z,1.73
2022-10-18T21:18:28.636Z,1.90
2022-10-18T21:21:08.173Z,2.00
2022-10-18T21:23:38.501Z,1.80
2022-10-18T21:26:09.586Z,1.73
2022-10-18T21:28:39.926Z,1.58
2022-10-18T21:31:22.380Z,1.70
2022-10-18T21:33:57.432Z,1.60
2022-10-18T21:36:28.812Z,1.67
2022-10-18T21:38:59.559Z,1.70
2022-10-18T21:41:29.794Z,1.30
2022-10-18T21:43:59.955Z,2.00
2022-10-18T21:46:30.149Z,1.70
2022-10-18T21:49:00.600Z,1.60
2022-10-18T21:51:31.068Z,1.40
2022-10-18T21:54:01.593Z,1.80
2022-10-18T21:56:34.649Z,1.83
2022-10-18T21:59:05.807Z,2.50
2022-10-18T22:01:40.384Z,3.00
2022-10-18T22:04:21.192Z,2.47
2022-10-18T22:06:51.624Z,3.38
2022-10-18T22:09:23.714Z,3.67
2022-10-18T22:11:56.415Z,4.15
2022-10-18T22:14:26.668Z,3.90
2022-10-18T22:16:56.872Z,3.83
2022-10-18T22:19:27.850Z,4.43
2022-10-18T22:21:57.958Z,3.60
2022-10-18T22:24:28.162Z,3.53
2022-10-18T22:26:58.878Z,3.38
2022-10-18T22:29:29.003Z,2.88
2022-10-18T22:31:59.111Z,2.92
2022-10-18T22:34:29.628Z,3.22
2022-10-18T22:36:59.830Z,2.25
2022-10-18T22:39:30.025Z,2.60
2022-10-18T22:42:00.241Z,2.45
2022-10-18T22:44:31.279Z,2.58
2022-10-18T22:47:01.854Z,2.75
2022-10-18T22:49:32.013Z,2.40
2022-10-18T22:52:02.106Z,2.10
2022-10-18T22:54:32.268Z,2.60
2022-10-18T22:57:02.388Z,2.88
2022-10-18T22:59:32.471Z,2.50
2022-10-18T23:02:02.633Z,2.53
2022-10-18T23:04:32.819Z,2.35
2022-10-18T23:07:02.932Z,2.85
2022-10-18T23:09:33.118Z,3.15
2022-10-18T23:12:03.310Z,2.10
2022-10-18T23:14:33.461Z,2.45
2022-10-18T23:17:04.601Z,2.50
2022-10-18T23:19:34.681Z,2.58
2022-10-18T23:22:04.804Z,2.50
2022-10-18T23:24:35.092Z,2.35
2022-10-18T23:27:05.282Z,2.03
2022-10-18T23:29:35.368Z,2.22
2022-10-18T23:32:05.536Z,2.60
2022-10-18T23:34:35.735Z,2.65
2022-10-18T23:37:05.952Z,2.67
2022-10-18T23:39:36.100Z,2.88
2022-10-18T23:42:06.498Z,2.38
2022-10-18T23:44:36.628Z,2.45
2022-10-18T23:47:07.283Z,2.25
2022-10-18T23:49:37.507Z,2.50
2022-10-18T23:52:07.798Z,2.30
2022-10-18T23:54:37.956Z,2.47
2022-10-18T23:57:08.155Z,2.58
2022-10-18T23:59:38.281Z,2.58
